sensor_id;sensor_type;location;lat;lon;timestamp;P1;durP1;ratioP1;P2;durP2;ratioP2
64022;SDS011;50264;52.088;5.296;2023-03-14T00:03:03;19.0;;;7.6;;
64022;SDS011;50264;52.088;5.296;2023-03-14T00:04:39;23.6;;;8.31;;
64022;SDS011;50264;52.088;5.296;2023-03-14T00:06:16;22.5;;;7.1;;
64022;SDS011;50264;52.088;5.296;2023-03-14T00:09:29;21.5;;;7.5;;
64022;SDS011;50264;52.088;5.296;2023-03-14T00:11:05;25.4;;;9.31;;
64022;SDS011;50264;52.088;5.296;2023-03-14T00:12:43;16.4;;;6.9;;
64022;SDS011;50264;52.088;5.296;2023-03-14T00:14:20;30.6;;;8.2;;
64022;SDS011;50264;52.088;5.296;2023-03-14T00:17:38;17.3;;;6.7;;
64022;SDS011;50264;52.088;5.296;2023-03-14T00:19:14;34.6;;;8.81;;
64022;SDS011;50264;52.088;5.296;2023-03-14T00:20:51;18.2;;;7.1;;
64022;SDS011;50264;52.088;5.296;2023-03-14T00:24:06;21.9;;;7.0;;
64022;SDS011;50264;52.088;5.296;2023-03-14T00:25:43;33.21;;;8.0;;
64022;SDS011;50264;52.088;5.296;2023-03-14T00:27:19;26.4;;;7.4;;
64022;SDS011;50264;52.088;5.296;2023-03-14T00:30:31;18.11;;;6.1;;
64022;SDS011;50264;52.088;5.296;2023-03-14T00:32:07;20.11;;;6.5;;
64022;SDS011;50264;52.088;5.296;2023-03-14T00:33:44;22.3;;;6.6;;
64022;SDS011;50264;52.088;5.296;2023-03-14T00:35:20;19.3;;;5.8;;
64022;SDS011;50264;52.088;5.296;2023-03-14T00:38:33;15.0;;;5.6;;
64022;SDS011;50264;52.088;5.296;2023-03-14T00:40:09;19.91;;;4.8;;
64022;SDS011;50264;52.088;5.296;2023-03-14T00:41:46;15.1;;;4.41;;
64022;SDS011;50264;52.088;5.296;2023-03-14T00:44:59;18.0;;;4.5;;
64022;SDS011;50264;52.088;5.296;2023-03-14T00:46:35;17.2;;;3.7;;
64022;SDS011;50264;52.088;5.296;2023-03-14T00:48:11;16.5;;;4.1;;
64022;SDS011;50264;52.088;5.296;2023-03-14T00:51:23;15.5;;;4.3;;
64022;SDS011;50264;52.088;5.296;2023-03-14T00:53:00;14.7;;;4.1;;
64022;SDS011;50264;52.088;5.296;2023-03-14T00:54:36;10.7;;;3.5;;
64022;SDS011;50264;52.088;5.296;2023-03-14T00:56:12;12.8;;;3.5;;
64022;SDS011;50264;52.088;5.296;2023-03-14T00:59:25;11.8;;;3.3;;
64022;SDS011;50264;52.088;5.296;2023-03-14T01:01:04;15.1;;;4.41;;
64022;SDS011;50264;52.088;5.296;2023-03-14T01:02:41;14.1;;;3.2;;
64022;SDS011;50264;52.088;5.296;2023-03-14T01:06:05;10.1;;;3.1;;
64022;SDS011;50264;52.088;5.296;2023-03-14T01:07:42;11.3;;;3.5;;
64022;SDS011;50264;52.088;5.296;2023-03-14T01:09:18;17.0;;;3.6;;
64022;SDS011;50264;52.088;5.296;2023-03-14T01:10:54;11.6;;;3.4;;
64022;SDS011;50264;52.088;5.296;2023-03-14T01:14:06;11.8;;;3.7;;
64022;SDS011;50264;52.088;5.296;2023-03-14T01:15:43;13.1;;;3.3;;
64022;SDS011;50264;52.088;5.296;2023-03-14T01:17:19;17.41;;;3.5;;
64022;SDS011;50264;52.088;5.296;2023-03-14T01:20:31;9.1;;;3.0;;
64022;SDS011;50264;52.088;5.296;2023-03-14T01:22:08;12.3;;;3.6;;
64022;SDS011;50264;52.088;5.296;2023-03-14T01:23:45;14.6;;;3.4;;
64022;SDS011;50264;52.088;5.296;2023-03-14T01:26:57;15.5;;;3.6;;
64022;SDS011;50264;52.088;5.296;2023-03-14T01:28:34;14.0;;;4.2;;
64022;SDS011;50264;52.088;5.296;2023-03-14T01:30:11;16.2;;;3.6;;
64022;SDS011;50264;52.088;5.296;2023-03-14T01:31:49;11.1;;;3.5;;
64022;SDS011;50264;52.088;5.296;2023-03-14T01:35:01;13.5;;;3.7;;
64022;SDS011;50264;52.088;5.296;2023-03-14T01:36:38;9.9;;;3.2;;
64022;SDS011;50264;52.088;5.296;2023-03-14T01:38:14;11.1;;;3.2;;
64022;SDS011;50264;52.088;5.296;2023-03-14T01:41:26;12.2;;;3.7;;
64022;SDS011;50264;52.088;5.296;2023-03-14T01:43:05;10.0;;;3.3;;
64022;SDS011;50264;52.088;5.296;2023-03-14T01:44:51;12.7;;;3.6;;
64022;SDS011;50264;52.088;5.296;2023-03-14T01:46:32;9.31;;;3.1;;
64022;SDS011;50264;52.088;5.296;2023-03-14T01:49:49;16.8;;;3.7;;
64022;SDS011;50264;52.088;5.296;2023-03-14T01:51:30;11.2;;;3.7;;
64022;SDS011;50264;52.088;5.296;2023-03-14T01:53:11;16.7;;;4.1;;
64022;SDS011;50264;52.088;5.296;2023-03-14T01:54:49;15.3;;;3.2;;
64022;SDS011;50264;52.088;5.296;2023-03-14T01:58:07;12.1;;;4.0;;
64022;SDS011;50264;52.088;5.296;2023-03-14T01:59:45;12.1;;;4.0;;
64022;SDS011;50264;52.088;5.296;2023-03-14T02:01:26;12.0;;;3.4;;
64022;SDS011;50264;52.088;5.296;2023-03-14T02:04:49;16.0;;;3.5;;
64022;SDS011;50264;52.088;5.296;2023-03-14T02:06:29;13.7;;;3.5;;
64022;SDS011;50264;52.088;5.296;2023-03-14T02:08:13;17.11;;;3.7;;
64022;SDS011;50264;52.088;5.296;2023-03-14T02:09:53;11.8;;;3.2;;
64022;SDS011;50264;52.088;5.296;2023-03-14T02:11:32;10.7;;;3.4;;
64022;SDS011;50264;52.088;5.296;2023-03-14T02:14:47;11.7;;;3.5;;
64022;SDS011;50264;52.088;5.296;2023-03-14T02:16:23;12.7;;;3.3;;
64022;SDS011;50264;52.088;5.296;2023-03-14T02:18:01;12.7;;;3.9;;
64022;SDS011;50264;52.088;5.296;2023-03-14T02:21:36;8.6;;;3.5;;
64022;SDS011;50264;52.088;5.296;2023-03-14T02:23:25;12.4;;;3.1;;
64022;SDS011;50264;52.088;5.296;2023-03-14T02:25:11;11.0;;;3.4;;
64022;SDS011;50264;52.088;5.296;2023-03-14T02:27:24;12.1;;;3.2;;
64022;SDS011;50264;52.088;5.296;2023-03-14T02:29:01;12.1;;;3.2;;
64022;SDS011;50264;52.088;5.296;2023-03-14T02:30:37;17.5;;;3.1;;
64022;SDS011;50264;52.088;5.296;2023-03-14T02:33:53;15.2;;;3.2;;
64022;SDS011;50264;52.088;5.296;2023-03-14T02:35:32;13.0;;;2.9;;
64022;SDS011;50264;52.088;5.296;2023-03-14T02:37:16;7.9;;;2.9;;
64022;SDS011;50264;52.088;5.296;2023-03-14T02:38:58;9.0;;;2.8;;
64022;SDS011;50264;52.088;5.296;2023-03-14T02:42:19;13.0;;;3.1;;
64022;SDS011;50264;52.088;5.296;2023-03-14T02:43:57;9.6;;;2.8;;
64022;SDS011;50264;52.088;5.296;2023-03-14T02:45:36;17.91;;;3.4;;
64022;SDS011;50264;52.088;5.296;2023-03-14T02:47:18;10.6;;;3.6;;
64022;SDS011;50264;52.088;5.296;2023-03-14T02:50:40;12.4;;;3.6;;
64022;SDS011;50264;52.088;5.296;2023-03-14T02:52:17;10.3;;;3.2;;
64022;SDS011;50264;52.088;5.296;2023-03-14T02:53:53;10.3;;;3.6;;
64022;SDS011;50264;52.088;5.296;2023-03-14T02:55:29;11.8;;;3.6;;
64022;SDS011;50264;52.088;5.296;2023-03-14T02:58:41;10.5;;;3.2;;
64022;SDS011;50264;52.088;5.296;2023-03-14T03:00:18;10.9;;;3.5;;
64022;SDS011;50264;52.088;5.296;2023-03-14T03:01:55;11.9;;;3.6;;
64022;SDS011;50264;52.088;5.296;2023-03-14T03:05:07;7.6;;;3.2;;
64022;SDS011;50264;52.088;5.296;2023-03-14T03:06:43;17.7;;;4.0;;
64022;SDS011;50264;52.088;5.296;2023-03-14T03:08:20;8.5;;;3.9;;
64022;SDS011;50264;52.088;5.296;2023-03-14T03:11:33;11.4;;;3.8;;
64022;SDS011;50264;52.088;5.296;2023-03-14T03:13:09;12.9;;;3.7;;
64022;SDS011;50264;52.088;5.296;2023-03-14T03:14:45;11.1;;;3.5;;
64022;SDS011;50264;52.088;5.296;2023-03-14T03:16:21;8.31;;;3.3;;
64022;SDS011;50264;52.088;5.296;2023-03-14T03:19:34;12.4;;;3.7;;
64022;SDS011;50264;52.088;5.296;2023-03-14T03:21:11;7.0;;;3.2;;
64022;SDS011;50264;52.088;5.296;2023-03-14T03:22:47;10.1;;;3.4;;
64022;SDS011;50264;52.088;5.296;2023-03-14T03:26:00;10.7;;;3.6;;
64022;SDS011;50264;52.088;5.296;2023-03-14T03:27:37;19.5;;;3.5;;
64022;SDS011;50264;52.088;5.296;2023-03-14T03:29:13;13.4;;;3.3;;
64022;SDS011;50264;52.088;5.296;2023-03-14T03:32:26;8.4;;;3.1;;
64022;SDS011;50264;52.088;5.296;2023-03-14T03:34:03;10.4;;;3.4;;
64022;SDS011;50264;52.088;5.296;2023-03-14T03:35:43;11.5;;;4.1;;
64022;SDS011;50264;52.088;5.296;2023-03-14T03:37:20;8.81;;;3.5;;
64022;SDS011;50264;52.088;5.296;2023-03-14T03:40:32;15.5;;;4.0;;
64022;SDS011;50264;52.088;5.296;2023-03-14T03:42:09;13.8;;;4.0;;
64022;SDS011;50264;52.088;5.296;2023-03-14T03:43:44;10.8;;;3.9;;
64022;SDS011;50264;52.088;5.296;2023-03-14T03:46:57;9.9;;;3.7;;
64022;SDS011;50264;52.088;5.296;2023-03-14T03:48:33;9.31;;;3.7;;
64022;SDS011;50264;52.088;5.296;2023-03-14T03:50:10;12.8;;;3.7;;
64022;SDS011;50264;52.088;5.296;2023-03-14T03:53:22;16.0;;;3.5;;
64022;SDS011;50264;52.088;5.296;2023-03-14T03:54:58;10.4;;;3.4;;
64022;SDS011;50264;52.088;5.296;2023-03-14T03:56:35;14.8;;;3.8;;
64022;SDS011;50264;52.088;5.296;2023-03-14T03:58:11;12.5;;;3.7;;
64022;SDS011;50264;52.088;5.296;2023-03-14T04:01:23;13.9;;;3.1;;
64022;SDS011;50264;52.088;5.296;2023-03-14T04:02:59;11.7;;;3.9;;
64022;SDS011;50264;52.088;5.296;2023-03-14T04:04:35;12.8;;;3.6;;
64022;SDS011;50264;52.088;5.296;2023-03-14T04:07:48;13.1;;;3.6;;
64022;SDS011;50264;52.088;5.296;2023-03-14T04:09:25;14.1;;;3.2;;
64022;SDS011;50264;52.088;5.296;2023-03-14T04:11:01;12.5;;;3.2;;
64022;SDS011;50264;52.088;5.296;2023-03-14T04:14:15;12.3;;;3.2;;
64022;SDS011;50264;52.088;5.296;2023-03-14T04:15:51;10.6;;;3.6;;
64022;SDS011;50264;52.088;5.296;2023-03-14T04:17:28;10.5;;;3.5;;
64022;SDS011;50264;52.088;5.296;2023-03-14T04:19:04;9.5;;;3.3;;
64022;SDS011;50264;52.088;5.296;2023-03-14T04:22:17;16.7;;;3.3;;
64022;SDS011;50264;52.088;5.296;2023-03-14T04:23:53;15.5;;;3.8;;
64022;SDS011;50264;52.088;5.296;2023-03-14T04:25:30;15.0;;;4.1;;
64022;SDS011;50264;52.088;5.296;2023-03-14T04:28:42;10.9;;;3.4;;
64022;SDS011;50264;52.088;5.296;2023-03-14T04:30:19;15.4;;;3.6;;
64022;SDS011;50264;52.088;5.296;2023-03-14T04:31:55;13.2;;;3.6;;
64022;SDS011;50264;52.088;5.296;2023-03-14T04:36:44;13.1;;;3.8;;
64022;SDS011;50264;52.088;5.296;2023-03-14T04:38:20;15.8;;;3.7;;
64022;SDS011;50264;52.088;5.296;2023-03-14T04:41:32;15.8;;;3.7;;
64022;SDS011;50264;52.088;5.296;2023-03-14T04:43:09;11.4;;;3.6;;
64022;SDS011;50264;52.088;5.296;2023-03-14T04:44:46;15.6;;;3.5;;
64022;SDS011;50264;52.088;5.296;2023-03-14T04:46:22;13.3;;;4.0;;
64022;SDS011;50264;52.088;5.296;2023-03-14T04:49:35;17.61;;;3.8;;
64022;SDS011;50264;52.088;5.296;2023-03-14T04:51:11;10.21;;;3.5;;
64022;SDS011;50264;52.088;5.296;2023-03-14T04:52:47;7.9;;;3.3;;
64022;SDS011;50264;52.088;5.296;2023-03-14T04:55:59;11.3;;;3.6;;
64022;SDS011;50264;52.088;5.296;2023-03-14T04:57:36;9.31;;;3.4;;
64022;SDS011;50264;52.088;5.296;2023-03-14T04:59:12;12.7;;;3.8;;
64022;SDS011;50264;52.088;5.296;2023-03-14T05:02:26;10.3;;;3.3;;
64022;SDS011;50264;52.088;5.296;2023-03-14T05:04:02;9.31;;;3.2;;
64022;SDS011;50264;52.088;5.296;2023-03-14T05:05:38;9.81;;;3.2;;
64022;SDS011;50264;52.088;5.296;2023-03-14T05:07:14;11.3;;;3.9;;
64022;SDS011;50264;52.088;5.296;2023-03-14T05:10:26;11.4;;;4.41;;
64022;SDS011;50264;52.088;5.296;2023-03-14T05:12:02;10.5;;;3.5;;
64022;SDS011;50264;52.088;5.296;2023-03-14T05:13:39;13.6;;;3.6;;
64022;SDS011;50264;52.088;5.296;2023-03-14T05:16:51;10.9;;;3.5;;
64022;SDS011;50264;52.088;5.296;2023-03-14T05:18:27;10.9;;;3.9;;
64022;SDS011;50264;52.088;5.296;2023-03-14T05:20:03;11.3;;;3.6;;
64022;SDS011;50264;52.088;5.296;2023-03-14T05:23:16;8.9;;;3.5;;
64022;SDS011;50264;52.088;5.296;2023-03-14T05:24:52;10.7;;;4.2;;
64022;SDS011;50264;52.088;5.296;2023-03-14T05:26:29;13.2;;;4.1;;
64022;SDS011;50264;52.088;5.296;2023-03-14T05:29:42;8.9;;;3.8;;
64022;SDS011;50264;52.088;5.296;2023-03-14T05:31:18;12.4;;;4.0;;
64022;SDS011;50264;52.088;5.296;2023-03-14T05:32:54;9.5;;;3.8;;
64022;SDS011;50264;52.088;5.296;2023-03-14T05:34:30;12.4;;;4.61;;
64022;SDS011;50264;52.088;5.296;2023-03-14T05:37:43;14.1;;;4.0;;
64022;SDS011;50264;52.088;5.296;2023-03-14T05:39:20;12.4;;;4.41;;
64022;SDS011;50264;52.088;5.296;2023-03-14T05:40:56;9.1;;;4.7;;
64022;SDS011;50264;52.088;5.296;2023-03-14T05:44:09;8.4;;;4.3;;
64022;SDS011;50264;52.088;5.296;2023-03-14T05:45:45;10.5;;;5.11;;
64022;SDS011;50264;52.088;5.296;2023-03-14T05:47:21;12.4;;;5.11;;
64022;SDS011;50264;52.088;5.296;2023-03-14T05:50:35;12.6;;;5.3;;
64022;SDS011;50264;52.088;5.296;2023-03-14T05:52:11;11.9;;;6.1;;
64022;SDS011;50264;52.088;5.296;2023-03-14T05:53:48;17.2;;;6.1;;
64022;SDS011;50264;52.088;5.296;2023-03-14T05:55:24;13.3;;;6.0;;
64022;SDS011;50264;52.088;5.296;2023-03-14T05:58:37;15.4;;;7.1;;
64022;SDS011;50264;52.088;5.296;2023-03-14T06:00:14;14.1;;;7.0;;
64022;SDS011;50264;52.088;5.296;2023-03-14T06:01:50;13.7;;;7.2;;
64022;SDS011;50264;52.088;5.296;2023-03-14T06:06:41;20.3;;;8.0;;
64022;SDS011;50264;52.088;5.296;2023-03-14T06:08:17;12.2;;;8.1;;
64022;SDS011;50264;52.088;5.296;2023-03-14T06:11:29;18.91;;;8.31;;
64022;SDS011;50264;52.088;5.296;2023-03-14T06:13:05;13.4;;;8.31;;
64022;SDS011;50264;52.088;5.296;2023-03-14T06:14:41;15.2;;;8.1;;
64022;SDS011;50264;52.088;5.296;2023-03-14T06:16:17;11.4;;;8.1;;
64022;SDS011;50264;52.088;5.296;2023-03-14T06:19:30;11.8;;;8.2;;
64022;SDS011;50264;52.088;5.296;2023-03-14T06:21:07;18.41;;;9.31;;
64022;SDS011;50264;52.088;5.296;2023-03-14T06:22:44;12.8;;;8.2;;
64022;SDS011;50264;52.088;5.296;2023-03-14T06:25:56;16.5;;;9.21;;
64022;SDS011;50264;52.088;5.296;2023-03-14T06:27:32;18.41;;;10.4;;
64022;SDS011;50264;52.088;5.296;2023-03-14T06:29:09;16.0;;;11.0;;
64022;SDS011;50264;52.088;5.296;2023-03-14T06:32:21;14.3;;;10.9;;
64022;SDS011;50264;52.088;5.296;2023-03-14T06:33:58;16.5;;;12.7;;
64022;SDS011;50264;52.088;5.296;2023-03-14T06:35:35;13.7;;;8.1;;
64022;SDS011;50264;52.088;5.296;2023-03-14T06:37:11;12.2;;;6.9;;
64022;SDS011;50264;52.088;5.296;2023-03-14T06:40:23;14.1;;;7.7;;
64022;SDS011;50264;52.088;5.296;2023-03-14T06:41:59;20.5;;;4.91;;
64022;SDS011;50264;52.088;5.296;2023-03-14T06:43:35;5.3;;;3.1;;
64022;SDS011;50264;52.088;5.296;2023-03-14T06:46:48;4.41;;;1.8;;
64022;SDS011;50264;52.088;5.296;2023-03-14T06:48:25;8.0;;;1.6;;
64022;SDS011;50264;52.088;5.296;2023-03-14T06:50:01;2.21;;;1.7;;
64022;SDS011;50264;52.088;5.296;2023-03-14T06:53:16;2.1;;;1.3;;
64022;SDS011;50264;52.088;5.296;2023-03-14T06:54:52;8.5;;;2.0;;
64022;SDS011;50264;52.088;5.296;2023-03-14T06:56:28;2.0;;;1.0;;
64022;SDS011;50264;52.088;5.296;2023-03-14T06:58:04;8.1;;;1.6;;
64022;SDS011;50264;52.088;5.296;2023-03-14T07:01:20;5.8;;;1.5;;
64022;SDS011;50264;52.088;5.296;2023-03-14T07:02:58;2.9;;;1.5;;
64022;SDS011;50264;52.088;5.296;2023-03-14T07:04:34;2.5;;;1.2;;
64022;SDS011;50264;52.088;5.296;2023-03-14T07:07:46;4.1;;;1.4;;
64022;SDS011;50264;52.088;5.296;2023-03-14T07:09:22;3.3;;;1.6;;
64022;SDS011;50264;52.088;5.296;2023-03-14T07:10:58;2.7;;;1.7;;
64022;SDS011;50264;52.088;5.296;2023-03-14T07:14:11;3.7;;;1.8;;
64022;SDS011;50264;52.088;5.296;2023-03-14T07:15:47;4.7;;;1.9;;
64022;SDS011;50264;52.088;5.296;2023-03-14T07:17:23;5.2;;;1.7;;
64022;SDS011;50264;52.088;5.296;2023-03-14T07:20:36;4.3;;;1.9;;
64022;SDS011;50264;52.088;5.296;2023-03-14T07:22:12;3.2;;;1.6;;
64022;SDS011;50264;52.088;5.296;2023-03-14T07:23:49;5.3;;;2.21;;
64022;SDS011;50264;52.088;5.296;2023-03-14T07:25:25;4.5;;;2.21;;
64022;SDS011;50264;52.088;5.296;2023-03-14T07:28:38;7.3;;;2.1;;
64022;SDS011;50264;52.088;5.296;2023-03-14T07:30:14;4.2;;;2.1;;
64022;SDS011;50264;52.088;5.296;2023-03-14T07:31:50;4.91;;;2.0;;
64022;SDS011;50264;52.088;5.296;2023-03-14T07:35:03;2.5;;;1.9;;
64022;SDS011;50264;52.088;5.296;2023-03-14T07:36:40;3.5;;;1.9;;
64022;SDS011;50264;52.088;5.296;2023-03-14T07:38:16;3.8;;;1.9;;
64022;SDS011;50264;52.088;5.296;2023-03-14T07:41:28;2.6;;;1.7;;
64022;SDS011;50264;52.088;5.296;2023-03-14T07:43:04;4.7;;;1.8;;
64022;SDS011;50264;52.088;5.296;2023-03-14T07:44:40;3.4;;;1.4;;
64022;SDS011;50264;52.088;5.296;2023-03-14T07:46:17;2.21;;;1.11;;
64022;SDS011;50264;52.088;5.296;2023-03-14T07:49:28;2.21;;;1.11;;
64022;SDS011;50264;52.088;5.296;2023-03-14T07:51:05;1.9;;;1.3;;
64022;SDS011;50264;52.088;5.296;2023-03-14T07:52:41;3.3;;;1.2;;
64022;SDS011;50264;52.088;5.296;2023-03-14T07:55:53;3.3;;;0.9;;
64022;SDS011;50264;52.088;5.296;2023-03-14T07:57:29;3.6;;;0.9;;
64022;SDS011;50264;52.088;5.296;2023-03-14T07:59:05;5.9;;;1.0;;
64022;SDS011;50264;52.088;5.296;2023-03-14T08:02:19;1.6;;;0.6;;
64022;SDS011;50264;52.088;5.296;2023-03-14T08:03:55;2.0;;;0.7;;
64022;SDS011;50264;52.088;5.296;2023-03-14T08:05:33;2.4;;;0.8;;
64022;SDS011;50264;52.088;5.296;2023-03-14T08:07:10;3.6;;;1.0;;
64022;SDS011;50264;52.088;5.296;2023-03-14T08:10:22;7.2;;;1.2;;
64022;SDS011;50264;52.088;5.296;2023-03-14T08:11:58;3.5;;;1.2;;
64022;SDS011;50264;52.088;5.296;2023-03-14T08:13:35;7.2;;;1.11;;
64022;SDS011;50264;52.088;5.296;2023-03-14T08:16:49;5.7;;;1.2;;
64022;SDS011;50264;52.088;5.296;2023-03-14T08:20:02;4.3;;;1.4;;
64022;SDS011;50264;52.088;5.296;2023-03-14T08:23:15;7.3;;;1.5;;
64022;SDS011;50264;52.088;5.296;2023-03-14T08:24:51;5.11;;;1.2;;
64022;SDS011;50264;52.088;5.296;2023-03-14T08:28:04;4.41;;;1.11;;
64022;SDS011;50264;52.088;5.296;2023-03-14T08:31:17;5.6;;;1.11;;
64022;SDS011;50264;52.088;5.296;2023-03-14T08:32:53;5.0;;;1.4;;
64022;SDS011;50264;52.088;5.296;2023-03-14T08:34:32;5.5;;;1.2;;
64022;SDS011;50264;52.088;5.296;2023-03-14T08:37:46;7.4;;;1.0;;
64022;SDS011;50264;52.088;5.296;2023-03-14T08:39:22;3.9;;;1.2;;
64022;SDS011;50264;52.088;5.296;2023-03-14T08:40:59;4.91;;;1.0;;
64022;SDS011;50264;52.088;5.296;2023-03-14T08:44:14;4.0;;;0.9;;
64022;SDS011;50264;52.088;5.296;2023-03-14T08:45:50;3.1;;;1.0;;
64022;SDS011;50264;52.088;5.296;2023-03-14T08:47:26;3.8;;;0.7;;
64022;SDS011;50264;52.088;5.296;2023-03-14T08:49:02;2.4;;;1.0;;
64022;SDS011;50264;52.088;5.296;2023-03-14T08:52:16;3.5;;;1.11;;
64022;SDS011;50264;52.088;5.296;2023-03-14T08:53:52;3.0;;;0.9;;
64022;SDS011;50264;52.088;5.296;2023-03-14T08:55:28;5.8;;;1.3;;
64022;SDS011;50264;52.088;5.296;2023-03-14T08:58:41;5.5;;;1.6;;
64022;SDS011;50264;52.088;5.296;2023-03-14T09:00:18;5.0;;;1.4;;
64022;SDS011;50264;52.088;5.296;2023-03-14T09:01:55;3.5;;;1.11;;
64022;SDS011;50264;52.088;5.296;2023-03-14T09:05:07;3.2;;;1.3;;
64022;SDS011;50264;52.088;5.296;2023-03-14T09:06:44;4.7;;;1.7;;
64022;SDS011;50264;52.088;5.296;2023-03-14T09:08:20;9.31;;;2.4;;
64022;SDS011;50264;52.088;5.296;2023-03-14T09:09:56;6.5;;;2.5;;
64022;SDS011;50264;52.088;5.296;2023-03-14T09:13:09;5.3;;;1.9;;
64022;SDS011;50264;52.088;5.296;2023-03-14T09:14:45;9.1;;;2.0;;
64022;SDS011;50264;52.088;5.296;2023-03-14T09:16:21;8.6;;;2.7;;
64022;SDS011;50264;52.088;5.296;2023-03-14T09:19:33;11.3;;;2.0;;
64022;SDS011;50264;52.088;5.296;2023-03-14T09:21:09;7.8;;;2.0;;
64022;SDS011;50264;52.088;5.296;2023-03-14T09:22:45;6.0;;;2.1;;
64022;SDS011;50264;52.088;5.296;2023-03-14T09:25:57;13.7;;;2.6;;
64022;SDS011;50264;52.088;5.296;2023-03-14T09:27:35;9.71;;;2.8;;
64022;SDS011;50264;52.088;5.296;2023-03-14T09:29:11;9.1;;;2.7;;
64022;SDS011;50264;52.088;5.296;2023-03-14T09:32:23;11.1;;;2.9;;
64022;SDS011;50264;52.088;5.296;2023-03-14T09:33:59;10.6;;;3.1;;
64022;SDS011;50264;52.088;5.296;2023-03-14T09:35:35;12.8;;;3.3;;
64022;SDS011;50264;52.088;5.296;2023-03-14T09:37:12;14.9;;;3.4;;
64022;SDS011;50264;52.088;5.296;2023-03-14T09:40:24;12.0;;;3.1;;
64022;SDS011;50264;52.088;5.296;2023-03-14T09:42:10;13.2;;;3.4;;
64022;SDS011;50264;52.088;5.296;2023-03-14T09:43:51;15.2;;;3.6;;
64022;SDS011;50264;52.088;5.296;2023-03-14T09:45:39;9.5;;;3.1;;
64022;SDS011;50264;52.088;5.296;2023-03-14T09:48:54;13.2;;;3.2;;
64022;SDS011;50264;52.088;5.296;2023-03-14T09:50:31;14.4;;;3.7;;
64022;SDS011;50264;52.088;5.296;2023-03-14T09:52:14;17.0;;;3.8;;
64022;SDS011;50264;52.088;5.296;2023-03-14T09:53:55;12.9;;;3.1;;
64022;SDS011;50264;52.088;5.296;2023-03-14T09:57:10;12.9;;;3.1;;
64022;SDS011;50264;52.088;5.296;2023-03-14T09:58:50;20.3;;;4.61;;
64022;SDS011;50264;52.088;5.296;2023-03-14T10:00:30;24.1;;;4.61;;
64022;SDS011;50264;52.088;5.296;2023-03-14T10:03:53;19.7;;;4.5;;
64022;SDS011;50264;52.088;5.296;2023-03-14T10:05:31;15.2;;;3.8;;
64022;SDS011;50264;52.088;5.296;2023-03-14T10:07:08;19.11;;;3.8;;
64022;SDS011;50264;52.088;5.296;2023-03-14T10:08:50;21.2;;;4.61;;
64022;SDS011;50264;52.088;5.296;2023-03-14T10:12:03;21.5;;;4.2;;
64022;SDS011;50264;52.088;5.296;2023-03-14T10:13:46;19.0;;;3.7;;
64022;SDS011;50264;52.088;5.296;2023-03-14T10:15:26;22.2;;;4.41;;
64022;SDS011;50264;52.088;5.296;2023-03-14T10:17:07;19.5;;;3.8;;
64022;SDS011;50264;52.088;5.296;2023-03-14T10:20:26;19.8;;;4.8;;
64022;SDS011;50264;52.088;5.296;2023-03-14T10:22:05;16.11;;;4.3;;
64022;SDS011;50264;52.088;5.296;2023-03-14T10:23:50;15.7;;;4.1;;
64022;SDS011;50264;52.088;5.296;2023-03-14T10:25:27;10.8;;;3.7;;
64022;SDS011;50264;52.088;5.296;2023-03-14T10:29:00;17.91;;;4.1;;
64022;SDS011;50264;52.088;5.296;2023-03-14T10:30:40;18.5;;;3.7;;
64022;SDS011;50264;52.088;5.296;2023-03-14T10:32:20;13.2;;;4.2;;
64022;SDS011;50264;52.088;5.296;2023-03-14T10:34:03;17.41;;;4.1;;
64022;SDS011;50264;52.088;5.296;2023-03-14T10:35:41;22.8;;;4.41;;
64022;SDS011;50264;52.088;5.296;2023-03-14T10:38:57;21.1;;;4.2;;
64022;SDS011;50264;52.088;5.296;2023-03-14T10:40:52;19.11;;;4.1;;
64022;SDS011;50264;52.088;5.296;2023-03-14T10:42:30;25.0;;;4.41;;
64022;SDS011;50264;52.088;5.296;2023-03-14T10:44:09;15.2;;;4.61;;
64022;SDS011;50264;52.088;5.296;2023-03-14T10:47:29;18.11;;;4.7;;
64022;SDS011;50264;52.088;5.296;2023-03-14T10:49:16;19.61;;;4.3;;
64022;SDS011;50264;52.088;5.296;2023-03-14T10:51:03;20.2;;;4.3;;
64022;SDS011;50264;52.088;5.296;2023-03-14T10:52:46;21.2;;;4.5;;
64022;SDS011;50264;52.088;5.296;2023-03-14T10:56:05;19.7;;;5.11;;
64022;SDS011;50264;52.088;5.296;2023-03-14T10:57:43;13.9;;;4.3;;
64022;SDS011;50264;52.088;5.296;2023-03-14T10:59:19;22.8;;;5.8;;
64022;SDS011;50264;52.088;5.296;2023-03-14T11:01:00;32.3;;;5.6;;
64022;SDS011;50264;52.088;5.296;2023-03-14T11:04:44;23.8;;;5.11;;
64022;SDS011;50264;52.088;5.296;2023-03-14T11:06:36;35.81;;;6.0;;
64022;SDS011;50264;52.088;5.296;2023-03-14T11:08:20;27.6;;;5.2;;
64022;SDS011;50264;52.088;5.296;2023-03-14T11:10:07;25.1;;;5.3;;
64022;SDS011;50264;52.088;5.296;2023-03-14T11:11:53;22.3;;;4.61;;
64022;SDS011;50264;52.088;5.296;2023-03-14T11:13:41;24.9;;;5.9;;
64022;SDS011;50264;52.088;5.296;2023-03-14T11:15:27;24.9;;;5.11;;
64022;SDS011;50264;52.088;5.296;2023-03-14T11:19:00;22.5;;;6.1;;
64022;SDS011;50264;52.088;5.296;2023-03-14T11:21:05;22.2;;;5.3;;
64022;SDS011;50264;52.088;5.296;2023-03-14T11:22:49;25.6;;;4.91;;
64022;SDS011;50264;52.088;5.296;2023-03-14T11:24:39;26.3;;;5.0;;
64022;SDS011;50264;52.088;5.296;2023-03-14T11:26:30;25.4;;;5.3;;
64022;SDS011;50264;52.088;5.296;2023-03-14T11:28:15;22.1;;;4.8;;
64022;SDS011;50264;52.088;5.296;2023-03-14T11:31:49;21.3;;;4.61;;
64022;SDS011;50264;52.088;5.296;2023-03-14T11:33:44;21.1;;;5.0;;
64022;SDS011;50264;52.088;5.296;2023-03-14T11:35:28;21.6;;;5.11;;
64022;SDS011;50264;52.088;5.296;2023-03-14T11:37:12;21.6;;;4.61;;
64022;SDS011;50264;52.088;5.296;2023-03-14T11:38:55;19.8;;;4.91;;
64022;SDS011;50264;52.088;5.296;2023-03-14T11:40:33;24.3;;;5.0;;
64022;SDS011;50264;52.088;5.296;2023-03-14T11:43:52;14.9;;;3.8;;
64022;SDS011;50264;52.088;5.296;2023-03-14T11:45:32;14.0;;;3.3;;
64022;SDS011;50264;52.088;5.296;2023-03-14T11:47:14;21.0;;;5.0;;
64022;SDS011;50264;52.088;5.296;2023-03-14T11:48:58;18.8;;;3.9;;
64022;SDS011;50264;52.088;5.296;2023-03-14T11:52:19;13.6;;;3.8;;
64022;SDS011;50264;52.088;5.296;2023-03-14T11:54:04;17.2;;;3.8;;
64022;SDS011;50264;52.088;5.296;2023-03-14T11:55:50;18.0;;;3.7;;
64022;SDS011;50264;52.088;5.296;2023-03-14T11:57:26;17.2;;;3.8;;
64022;SDS011;50264;52.088;5.296;2023-03-14T12:00:46;12.0;;;3.6;;
64022;SDS011;50264;52.088;5.296;2023-03-14T12:02:26;17.91;;;3.3;;
64022;SDS011;50264;52.088;5.296;2023-03-14T12:04:15;14.8;;;3.0;;
64022;SDS011;50264;52.088;5.296;2023-03-14T12:06:06;9.81;;;2.8;;
64022;SDS011;50264;52.088;5.296;2023-03-14T12:08:02;15.1;;;2.6;;
64022;SDS011;50264;52.088;5.296;2023-03-14T12:10:21;12.2;;;2.7;;
64022;SDS011;50264;52.088;5.296;2023-03-14T12:11:57;12.3;;;2.9;;
64022;SDS011;50264;52.088;5.296;2023-03-14T12:15:18;12.7;;;2.8;;
64022;SDS011;50264;52.088;5.296;2023-03-14T12:16:56;16.8;;;3.8;;
64022;SDS011;50264;52.088;5.296;2023-03-14T12:21:56;9.0;;;3.3;;
64022;SDS011;50264;52.088;5.296;2023-03-14T12:23:37;16.11;;;3.3;;
64022;SDS011;50264;52.088;5.296;2023-03-14T12:25:20;9.5;;;3.2;;
64022;SDS011;50264;52.088;5.296;2023-03-14T12:26:59;11.0;;;2.8;;
64022;SDS011;50264;52.088;5.296;2023-03-14T12:30:17;8.1;;;2.21;;
64022;SDS011;50264;52.088;5.296;2023-03-14T12:32:07;10.6;;;2.8;;
64022;SDS011;50264;52.088;5.296;2023-03-14T12:34:00;13.0;;;2.8;;
64022;SDS011;50264;52.088;5.296;2023-03-14T12:35:39;12.8;;;2.9;;
64022;SDS011;50264;52.088;5.296;2023-03-14T12:37:19;12.4;;;2.9;;
64022;SDS011;50264;52.088;5.296;2023-03-14T12:40:56;12.3;;;2.8;;
64022;SDS011;50264;52.088;5.296;2023-03-14T12:42:40;12.3;;;2.8;;
64022;SDS011;50264;52.088;5.296;2023-03-14T12:44:37;7.8;;;2.31;;
64022;SDS011;50264;52.088;5.296;2023-03-14T12:46:23;9.5;;;2.31;;
64022;SDS011;50264;52.088;5.296;2023-03-14T12:48:06;12.7;;;2.9;;
64022;SDS011;50264;52.088;5.296;2023-03-14T12:49:46;11.6;;;3.0;;
64022;SDS011;50264;52.088;5.296;2023-03-14T12:53:17;9.6;;;2.4;;
64022;SDS011;50264;52.088;5.296;2023-03-14T12:56:20;7.8;;;2.4;;
64022;SDS011;50264;52.088;5.296;2023-03-14T12:58:02;8.81;;;2.0;;
64022;SDS011;50264;52.088;5.296;2023-03-14T13:01:27;5.3;;;1.9;;
64022;SDS011;50264;52.088;5.296;2023-03-14T13:03:13;10.5;;;2.21;;